createdAt,value
2022-09-12T00:01:25.876Z,100081.37
2022-09-12T00:03:56.143Z,100077.98
2022-09-12T00:06:33.446Z,100079.34
2022-09-12T00:09:04.895Z,100083.95
2022-09-12T00:11:35.017Z,100083.44
2022-09-12T00:14:03.636Z,100082.62
2022-09-12T00:16:34.442Z,100083.30
2022-09-12T00:19:03.629Z,100080.75
2022-09-12T00:21:34.268Z,100081.28
2022-09-12T00:24:02.535Z,100079.58
2022-09-12T00:26:30.910Z,100077.55
2022-09-12T00:28:58.782Z,100078.23
2022-09-12T00:31:27.453Z,100078.23
2022-09-12T00:34:00.962Z,100080.13
2022-09-12T00:36:30.619Z,100079.77
2022-09-12T00:38:59.000Z,100077.39
2022-09-12T00:41:38.790Z,100079.27
2022-09-12T00:44:26.699Z,100078.96
2022-09-12T00:47:10.876Z,100082.02
2022-09-12T00:50:03.523Z,100075.89
2022-09-12T00:52:41.627Z,100077.44
2022-09-12T00:55:18.707Z,100077.61
2022-09-12T00:57:51.891Z,100077.10
2022-09-12T01:00:23.461Z,100080.16
2022-09-12T01:02:56.816Z,100080.34
2022-09-12T01:05:26.660Z,100080.52
2022-09-12T01:07:57.080Z,100082.21
2022-09-12T01:10:25.160Z,100084.27
2022-09-12T01:12:53.221Z,100084.77
2022-09-12T01:15:21.091Z,100085.44
2022-09-12T01:18:12.833Z,100085.27
2022-09-12T01:20:50.611Z,100084.26
2022-09-12T01:23:48.633Z,100088.16
2022-09-12T01:26:38.059Z,100083.56
2022-09-12T01:29:41.901Z,100088.85
2022-09-12T01:32:32.565Z,100091.06
2022-09-12T01:35:34.226Z,100087.13
2022-09-12T01:38:17.653Z,100084.58
2022-09-12T01:40:56.269Z,100089.17
2022-09-12T01:43:35.501Z,100087.13
2022-09-12T01:46:18.009Z,100085.75
2022-09-12T01:49:00.419Z,100086.08
2022-09-12T01:51:33.922Z,100088.13
2022-09-12T01:54:12.804Z,100091.18
2022-09-12T01:56:44.089Z,100093.73
2022-09-12T01:59:22.089Z,100098.34
2022-09-12T02:02:03.098Z,100089.98
2022-09-12T02:04:48.965Z,100093.73
2022-09-12T02:07:27.569Z,100094.92
2022-09-12T02:10:04.378Z,100096.11
2022-09-12T02:12:49.925Z,100095.78
2022-09-12T02:15:21.172Z,100094.59
2022-09-12T02:17:52.821Z,100097.31
2022-09-12T02:20:44.419Z,100098.51
2022-09-12T02:23:23.677Z,100102.09
2022-09-12T02:25:57.679Z,100104.13
2022-09-12T02:28:31.490Z,100104.98
2022-09-12T02:31:14.514Z,100104.29
2022-09-12T02:34:08.797Z,100103.80
2022-09-12T02:36:55.913Z,100107.73
2022-09-12T02:39:24.906Z,100110.30
2022-09-12T02:41:57.313Z,100105.36
2022-09-12T02:44:27.290Z,100109.80
2022-09-12T02:47:05.705Z,100110.63
2022-09-12T02:49:33.876Z,100115.06
2022-09-12T02:52:02.513Z,100116.93
2022-09-12T02:54:31.222Z,100119.14
2022-09-12T02:56:59.063Z,100118.98
2022-09-12T02:59:27.461Z,100117.27
2022-09-12T03:02:01.090Z,100112.85
2022-09-12T03:04:58.241Z,100115.06
2022-09-12T03:07:41.365Z,100114.38
2022-09-12T03:10:24.589Z,100119.14
2022-09-12T03:13:11.022Z,100120.50
2022-09-12T03:16:23.456Z,100126.97
2022-09-12T03:19:09.215Z,100128.69
2022-09-12T03:21:54.966Z,100130.21
2022-09-12T03:24:48.441Z,100132.24
2022-09-12T03:27:21.498Z,100133.96
2022-09-12T03:29:51.085Z,100136.85
2022-09-12T03:32:19.006Z,100138.56
2022-09-12T03:34:46.865Z,100141.63
2022-09-12T03:37:14.845Z,100144.68
2022-09-12T03:39:42.663Z,100146.89
2022-09-12T03:42:10.667Z,100145.02
2022-09-12T03:44:38.530Z,100148.09
2022-09-12T03:47:11.027Z,100146.03
2022-09-12T03:49:39.206Z,100146.54
2022-09-12T03:52:07.247Z,100148.25
2022-09-12T03:54:35.011Z,100146.55
2022-09-12T03:57:02.875Z,100149.28
2022-09-12T03:59:31.255Z,100151.99
2022-09-12T04:01:59.279Z,100148.59
2022-09-12T04:04:27.290Z,100148.42
2022-09-12T04:06:55.379Z,100153.69
2022-09-12T04:09:23.674Z,100154.72
2022-09-12T04:11:51.607Z,100157.61
2022-09-12T04:14:19.474Z,100154.55
2022-09-12T04:16:47.291Z,100156.24
2022-09-12T04:19:15.281Z,100155.40
2022-09-12T04:21:43.179Z,100158.45
2022-09-12T04:24:10.947Z,100163.23
2022-09-12T04:26:38.702Z,100164.92
2022-09-12T04:29:06.562Z,100164.23
2022-09-12T04:31:34.326Z,100166.11
2022-09-12T04:34:02.807Z,100168.49
2022-09-12T04:36:31.222Z,100165.43
2022-09-12T04:39:00.482Z,100168.84
2022-09-12T04:41:31.478Z,100168.67
2022-09-12T04:44:02.568Z,100168.67
2022-09-12T04:46:32.886Z,100171.39
2022-09-12T04:49:00.830Z,100173.27
2022-09-12T04:51:31.726Z,100171.05
2022-09-12T04:54:02.735Z,100169.86
2022-09-12T04:56:31.386Z,100173.61
2022-09-12T04:59:01.228Z,100170.55
2022-09-12T05:01:30.448Z,100169.52
2022-09-12T05:04:00.234Z,100174.79
2022-09-12T05:06:30.876Z,100172.57
2022-09-12T05:08:59.968Z,100173.27
2022-09-12T05:11:59.781Z,100176.33
2022-09-12T05:14:19.127Z,100180.75
2022-09-12T05:16:49.366Z,100182.29
2022-09-12T05:19:17.659Z,100183.48
2022-09-12T05:21:45.706Z,100179.89
2022-09-12T05:24:13.479Z,100182.95
2022-09-12T05:26:41.335Z,100182.42
2022-09-12T05:29:09.200Z,100188.39
2022-09-12T05:31:37.883Z,100188.90
2022-09-12T05:34:07.288Z,100190.60
2022-09-12T05:36:35.254Z,100184.98
2022-09-12T05:39:04.338Z,100194.67
2022-09-12T05:41:34.130Z,100195.02
2022-09-12T05:44:04.531Z,100200.30
2022-09-12T05:46:40.397Z,100199.27
2022-09-12T05:49:10.350Z,100205.39
2022-09-12T05:51:41.616Z,100200.98
2022-09-12T05:54:12.332Z,100198.25
2022-09-12T05:56:43.235Z,100199.08
2022-09-12T05:59:17.687Z,100197.89
2022-09-12T06:01:45.921Z,100196.52
2022-09-12T06:04:14.135Z,100196.86
2022-09-12T06:06:47.000Z,100197.02
2022-09-12T06:09:16.634Z,100201.79
2022-09-12T06:11:45.827Z,100201.11
2022-09-12T06:14:17.745Z,100205.52
2022-09-12T06:16:47.254Z,100208.77
2022-09-12T06:19:18.223Z,100211.47
2022-09-12T06:21:48.554Z,100214.19
2022-09-12T06:24:17.881Z,100210.61
2022-09-12T06:26:47.843Z,100215.04
2022-09-12T06:29:16.338Z,100215.20
2022-09-12T06:31:44.833Z,100215.56
2022-09-12T06:34:15.146Z,100216.92
2022-09-12T06:36:48.371Z,100215.73
2022-09-12T06:39:23.445Z,100221.15
2022-09-12T06:41:52.957Z,100220.99
2022-09-12T06:44:22.663Z,100221.17
2022-09-12T06:46:50.856Z,100220.98
2022-09-12T06:49:19.026Z,100224.75
2022-09-12T06:51:47.107Z,100225.77
2022-09-12T06:54:16.925Z,100224.73
2022-09-12T06:56:45.227Z,100223.19
2022-09-12T06:59:13.152Z,100226.27
2022-09-12T07:01:42.088Z,100227.97
2022-09-12T07:04:10.536Z,100228.99
2022-09-12T07:06:41.393Z,100234.09
2022-09-12T07:09:13.113Z,100227.27
2022-09-12T07:11:42.465Z,100226.59
2022-09-12T07:14:14.107Z,100225.39
2022-09-12T07:16:42.395Z,100231.17
2022-09-12T07:19:10.930Z,100235.76
2022-09-12T07:21:41.786Z,100238.14
2022-09-12T07:24:11.107Z,100236.07
2022-09-12T07:26:42.496Z,100241.35
2022-09-12T07:29:35.904Z,100246.97
2022-09-12T07:32:05.675Z,100239.11
2022-09-12T07:34:34.481Z,100245.59
2022-09-12T07:37:02.542Z,100251.38
2022-09-12T07:39:30.321Z,100256.82
2022-09-12T07:41:58.888Z,100260.20
2022-09-12T07:44:28.289Z,100260.20
2022-09-12T07:46:56.079Z,100257.30
2022-09-12T07:49:24.332Z,100259.33
2022-09-12T07:51:52.093Z,100266.00
2022-09-12T07:54:20.443Z,100267.34
2022-09-12T07:56:48.338Z,100266.65
2022-09-12T07:59:29.988Z,100268.67
2022-09-12T08:02:04.201Z,100266.44
2022-09-12T08:04:32.122Z,100269.16
2022-09-12T08:06:59.968Z,100271.02
2022-09-12T08:09:27.732Z,100267.93
2022-09-12T08:11:55.495Z,100271.85
2022-09-12T08:14:23.462Z,100276.95
2022-09-12T08:16:51.332Z,100275.73
2022-09-12T08:19:19.765Z,100272.46
2022-09-12T08:21:47.500Z,100274.65
2022-09-12T08:24:16.051Z,100274.80
2022-09-12T08:26:43.935Z,100271.70
2022-09-12T08:29:12.243Z,100271.34
2022-09-12T08:31:41.593Z,100273.00
2022-09-12T08:34:10.085Z,100274.02
2022-09-12T08:36:37.939Z,100274.69
2022-09-12T08:39:07.861Z,100274.48
2022-09-12T08:41:47.906Z,100274.11
2022-09-12T08:44:21.786Z,100272.88
2022-09-12T08:46:49.572Z,100272.98
2022-09-12T08:49:29.123Z,100272.27
2022-09-12T08:52:00.872Z,100269.83
2022-09-12T08:54:30.870Z,100271.30
2022-09-12T08:57:04.001Z,100272.28
2022-09-12T08:59:39.913Z,100271.89
2022-09-12T09:02:46.199Z,100270.48
2022-09-12T09:05:43.550Z,100268.71
2022-09-12T09:08:40.199Z,100271.72
2022-09-12T09:11:29.161Z,100273.23
2022-09-12T09:14:50.576Z,100274.73
2022-09-12T09:17:40.286Z,100278.27
2022-09-12T09:20:43.854Z,100279.06
2022-09-12T09:23:31.074Z,100276.31
2022-09-12T09:26:27.481Z,100278.31
2022-09-12T09:29:11.146Z,100279.13
2022-09-12T09:31:40.542Z,100281.83
2022-09-12T09:34:22.135Z,100285.54
2022-09-12T09:36:57.346Z,100282.60
2022-09-12T09:40:27.799Z,100282.39
2022-09-12T09:43:12.263Z,100283.39
2022-09-12T09:45:44.548Z,100286.59
2022-09-12T09:48:29.443Z,100287.58
2022-09-12T09:51:00.487Z,100290.29
2022-09-12T09:53:56.770Z,100289.75
2022-09-12T09:56:27.390Z,100288.50
2022-09-12T09:58:55.685Z,100292.11
2022-09-12T10:01:24.821Z,100296.48
2022-09-12T10:03:56.730Z,100299.87
2022-09-12T10:06:37.099Z,100301.73
2022-09-12T10:09:16.526Z,100302.90
2022-09-12T10:11:46.017Z,100306.30
2022-09-12T10:14:28.217Z,100306.25
2022-09-12T10:16:56.804Z,100309.98
2022-09-12T10:19:40.482Z,100309.09
2022-09-12T10:22:18.237Z,100312.31
2022-09-12T10:24:52.511Z,100316.55
2022-09-12T10:27:31.377Z,100318.94
2022-09-12T10:30:20.398Z,100314.79
2022-09-12T10:32:53.177Z,100314.74
2022-09-12T10:35:28.669Z,100318.33
2022-09-12T10:38:06.873Z,100317.59
2022-09-12T10:40:43.381Z,100322.39
2022-09-12T10:43:34.529Z,100321.64
2022-09-12T10:46:15.851Z,100326.39
2022-09-12T10:48:49.338Z,100327.23
2022-09-12T10:51:26.021Z,100330.60
2022-09-12T10:53:57.760Z,100328.88
2022-09-12T10:56:32.893Z,100330.41
2022-09-12T10:59:21.857Z,100331.72
2022-09-12T11:01:57.477Z,100338.19
2022-09-12T11:04:43.905Z,100337.46
2022-09-12T11:07:41.056Z,100335.55
2022-09-12T11:10:27.464Z,100336.71
2022-09-12T11:13:25.837Z,100335.83
2022-09-12T11:16:08.679Z,100339.20
2022-09-12T11:19:04.040Z,100336.60
2022-09-12T11:21:34.697Z,100339.16
2022-09-12T11:24:23.477Z,100343.77
2022-09-12T11:27:20.599Z,100340.99
2022-09-12T11:30:11.449Z,100342.52
2022-09-12T11:33:08.964Z,100340.43
2022-09-12T11:35:53.061Z,100342.98
2022-09-12T11:38:47.842Z,100341.73
2022-09-12T11:41:27.039Z,100339.61
2022-09-12T11:44:03.799Z,100345.41
2022-09-12T11:46:40.093Z,100350.34
2022-09-12T11:49:14.970Z,100349.98
2022-09-12T11:52:04.172Z,100352.88
2022-09-12T11:54:52.840Z,100353.58
2022-09-12T11:57:40.759Z,100350.98
2022-09-12T12:00:19.623Z,100355.60
2022-09-12T12:02:59.634Z,100352.84
2022-09-12T12:05:52.157Z,100354.71
2022-09-12T12:08:23.532Z,100350.19
2022-09-12T12:11:00.709Z,100350.14
2022-09-12T12:13:45.986Z,100351.44
2022-09-12T12:16:34.944Z,100351.75
2022-09-12T12:19:10.736Z,100349.67
2022-09-12T12:21:40.767Z,100352.54
2022-09-12T12:24:08.678Z,100351.84
2022-09-12T12:26:40.026Z,100348.89
2022-09-12T12:29:13.829Z,100352.09
2022-09-12T12:32:00.331Z,100354.05
2022-09-12T12:34:42.124Z,100353.64
2022-09-12T12:37:19.307Z,100352.20
2022-09-12T12:39:48.448Z,100351.07
2022-09-12T12:42:35.249Z,100355.48
2022-09-12T12:45:26.735Z,100350.64
2022-09-12T12:48:00.349Z,100348.36
2022-09-12T12:50:32.295Z,100345.59
2022-09-12T12:53:03.748Z,100343.48
2022-09-12T12:55:57.833Z,100348.96
2022-09-12T12:58:28.968Z,100350.17
2022-09-12T13:01:15.008Z,100352.23
2022-09-12T13:04:05.575Z,100350.70
2022-09-12T13:06:33.325Z,100348.27
2022-09-12T13:09:19.415Z,100348.23
2022-09-12T13:11:47.552Z,100350.57
2022-09-12T13:14:35.639Z,100347.06
2022-09-12T13:17:08.646Z,100352.05
2022-09-12T13:19:38.238Z,100348.37
2022-09-12T13:22:10.526Z,100347.98
2022-09-12T13:24:48.997Z,100346.83
2022-09-12T13:27:26.312Z,100351.91
2022-09-12T13:30:09.831Z,100354.77
2022-09-12T13:32:37.786Z,100354.38
2022-09-12T13:35:28.691Z,100353.84
2022-09-12T13:38:20.736Z,100353.84
2022-09-12T13:41:22.484Z,100352.45
2022-09-12T13:43:50.553Z,100352.23
2022-09-12T13:46:28.429Z,100350.85
2022-09-12T13:48:58.981Z,100354.63
2022-09-12T13:51:30.535Z,100351.69
2022-09-12T13:54:03.277Z,100350.65
2022-09-12T13:56:31.323Z,100352.20
2022-09-12T13:59:01.816Z,100353.59
2022-09-12T14:01:40.499Z,100351.39
2022-09-12T14:04:40.549Z,100350.33
2022-09-12T14:07:21.215Z,100350.82
2022-09-12T14:09:58.053Z,100354.11
2022-09-12T14:12:28.723Z,100349.13
2022-09-12T14:14:57.415Z,100349.42
2022-09-12T14:17:32.996Z,100350.90
2022-09-12T14:20:09.504Z,100350.27
2022-09-12T14:22:38.933Z,100346.75
2022-09-12T14:25:14.038Z,100343.02
2022-09-12T14:27:47.981Z,100344.25
2022-09-12T14:30:27.918Z,100341.07
2022-09-12T14:33:11.148Z,100344.02
2022-09-12T14:35:43.616Z,100347.33
2022-09-12T14:38:17.733Z,100347.92
2022-09-12T14:40:53.191Z,100350.78
2022-09-12T14:43:23.593Z,100345.80
2022-09-12T14:46:01.199Z,100344.15
2022-09-12T14:48:34.331Z,100344.98
2022-09-12T14:51:02.861Z,100344.46
2022-09-12T14:53:32.770Z,100344.65
2022-09-12T14:56:14.331Z,100348.08
2022-09-12T14:58:42.623Z,100346.07
2022-09-12T15:01:13.319Z,100345.95
2022-09-12T15:03:49.997Z,100346.70
2022-09-12T15:06:32.657Z,100344.02
2022-09-12T15:09:06.958Z,100352.15
2022-09-12T15:11:34.942Z,100355.85
2022-09-12T15:14:29.038Z,100357.33
2022-09-12T15:16:56.789Z,100356.39
2022-09-12T15:19:24.647Z,100355.43
2022-09-12T15:21:53.181Z,100355.00
2022-09-12T15:24:21.016Z,100355.61
2022-09-12T15:26:49.079Z,100357.56
2022-09-12T15:29:16.826Z,100356.44
2022-09-12T15:31:47.562Z,100357.20
2022-09-12T15:34:15.628Z,100360.92
2022-09-12T15:36:43.500Z,100362.74
2022-09-12T15:39:12.179Z,100365.75
2022-09-12T15:41:40.799Z,100364.15
2022-09-12T15:44:12.825Z,100365.95
2022-09-12T15:46:41.121Z,100364.47
2022-09-12T15:49:09.124Z,100363.67
2022-09-12T15:51:37.346Z,100366.65
2022-09-12T15:54:05.520Z,100364.33
2022-09-12T15:56:33.385Z,100364.07
2022-09-12T15:59:01.352Z,100369.45
2022-09-12T16:01:29.624Z,100372.27
2022-09-12T16:03:57.933Z,100374.23
2022-09-12T16:06:27.302Z,100371.08
2022-09-12T16:08:55.483Z,100368.98
2022-09-12T16:11:26.033Z,100367.02
2022-09-12T16:13:55.303Z,100368.27
2022-09-12T16:16:23.164Z,100368.50
2022-09-12T16:18:51.035Z,100365.47
2022-09-12T16:21:18.903Z,100363.98
2022-09-12T16:23:48.123Z,100364.35
2022-09-12T16:26:16.682Z,100361.30
2022-09-12T16:28:45.006Z,100361.16
2022-09-12T16:31:14.393Z,100359.33
2022-09-12T16:33:42.426Z,100363.12
2022-09-12T16:36:13.059Z,100360.41
2022-09-12T16:38:42.578Z,100360.11
2022-09-12T16:41:11.301Z,100360.36
2022-09-12T16:43:39.914Z,100360.73
2022-09-12T16:46:11.884Z,100362.66
2022-09-12T16:48:52.602Z,100366.96
2022-09-12T16:51:24.015Z,100368.17
2022-09-12T16:53:52.515Z,100366.16
2022-09-12T16:56:20.976Z,100365.88
2022-09-12T16:58:49.015Z,100368.64
2022-09-12T17:01:20.435Z,100374.16
2022-09-12T17:03:48.945Z,100372.64
2022-09-12T17:06:18.573Z,100374.19
2022-09-12T17:08:49.383Z,100377.13
2022-09-12T17:11:38.368Z,100378.89
2022-09-12T17:14:08.386Z,100387.13
2022-09-12T17:16:42.393Z,100386.98
2022-09-12T17:19:26.797Z,100392.81
2022-09-12T17:21:54.919Z,100394.71
2022-09-12T17:24:23.298Z,100393.88
2022-09-12T17:26:52.132Z,100391.84
2022-09-12T17:29:20.406Z,100392.04
2022-09-12T17:31:49.014Z,100393.45
2022-09-12T17:34:17.982Z,100390.10
2022-09-12T17:36:48.401Z,100387.56
2022-09-12T17:39:16.333Z,100388.40
2022-09-12T17:41:46.159Z,100384.14
2022-09-12T17:44:15.239Z,100383.99
2022-09-12T17:46:44.478Z,100382.30
2022-09-12T17:49:15.073Z,100379.92
2022-09-12T17:51:44.067Z,100375.17
2022-09-12T17:54:18.474Z,100376.91
2022-09-12T17:56:49.117Z,100378.16
2022-09-12T17:59:24.598Z,100384.17
2022-09-12T18:02:11.110Z,100383.98
2022-09-12T18:04:45.964Z,100383.33
2022-09-12T18:07:16.226Z,100380.27
2022-09-12T18:09:44.730Z,100378.76
2022-09-12T18:12:12.545Z,100376.20
2022-09-12T18:14:41.168Z,100379.13
2022-09-12T18:17:11.392Z,100377.41
2022-09-12T18:19:39.420Z,100374.86
2022-09-12T18:22:07.595Z,100380.53
2022-09-12T18:24:36.025Z,100383.13
2022-09-12T18:27:04.859Z,100384.17
2022-09-12T18:29:32.827Z,100385.03
2022-09-12T18:32:01.006Z,100386.39
2022-09-12T18:34:28.972Z,100385.38
2022-09-12T18:36:56.936Z,100386.57
2022-09-12T18:39:27.745Z,100386.59
2022-09-12T18:41:55.913Z,100382.32
2022-09-12T18:44:23.671Z,100384.71
2022-09-12T18:46:51.600Z,100386.25
2022-09-12T18:49:19.335Z,100389.16
2022-09-12T18:51:47.272Z,100385.39
2022-09-12T18:54:15.579Z,100380.27
2022-09-12T18:56:45.549Z,100378.08
2022-09-12T18:59:15.082Z,100378.77
2022-09-12T19:01:43.941Z,100381.52
2022-09-12T19:04:13.287Z,100383.75
2022-09-12T19:06:43.814Z,100387.17
2022-09-12T19:09:14.460Z,100382.24
2022-09-12T19:11:50.447Z,100385.52
2022-09-12T19:14:22.593Z,100382.81
2022-09-12T19:16:52.249Z,100381.63
2022-09-12T19:19:21.130Z,100380.27
2022-09-12T19:21:49.249Z,100383.71
2022-09-12T19:24:17.361Z,100378.44
2022-09-12T19:26:45.647Z,100380.16
2022-09-12T19:29:14.884Z,100377.76
2022-09-12T19:31:44.178Z,100377.77
2022-09-12T19:34:14.809Z,100375.23
2022-09-12T19:36:45.363Z,100371.84
2022-09-12T19:39:16.374Z,100373.73
2022-09-12T19:41:45.191Z,100373.59
2022-09-12T19:44:13.759Z,100369.84
2022-09-12T19:46:42.084Z,100371.40
2022-09-12T19:49:11.550Z,100372.29
2022-09-12T19:51:39.606Z,100372.46
2022-09-12T19:54:07.970Z,100372.65
2022-09-12T19:56:36.083Z,100374.70
2022-09-12T19:59:04.461Z,100369.23
2022-09-12T20:01:32.815Z,100363.08
2022-09-12T20:04:00.666Z,100361.73
2022-09-12T20:06:28.841Z,100361.06
2022-09-12T20:08:56.707Z,100358.69
2022-09-12T20:11:25.907Z,100360.29
2022-09-12T20:13:54.084Z,100363.73
2022-09-12T20:16:25.762Z,100364.63
2022-09-12T20:18:56.459Z,100366.38
2022-09-12T20:21:31.757Z,100364.02
2022-09-12T20:24:10.523Z,100365.92
2022-09-12T20:26:39.762Z,100362.89
2022-09-12T20:29:08.812Z,100362.58
2022-09-12T20:31:38.822Z,100362.48
2022-09-12T20:34:08.234Z,100358.78
2022-09-12T20:36:36.299Z,100360.02
2022-09-12T20:39:05.151Z,100358.33
2022-09-12T20:41:38.181Z,100354.94
2022-09-12T20:44:06.351Z,100353.77
2022-09-12T20:46:34.415Z,100355.67
2022-09-12T20:49:03.119Z,100351.09
2022-09-12T20:51:31.131Z,100358.13
2022-09-12T20:54:01.294Z,100362.45
2022-09-12T20:56:31.726Z,100360.08
2022-09-12T20:58:59.792Z,100364.03
2022-09-12T21:01:29.912Z,100365.43
2022-09-12T21:03:59.925Z,100361.52
2022-09-12T21:06:28.105Z,100362.05
2022-09-12T21:09:00.791Z,100362.07
2022-09-12T21:11:29.158Z,100362.08
2022-09-12T21:13:58.246Z,100361.27
2022-09-12T21:16:26.449Z,100362.82
2022-09-12T21:18:57.304Z,100357.03
2022-09-12T21:21:25.938Z,100358.76
2022-09-12T21:23:57.265Z,100360.48
2022-09-12T21:26:26.363Z,100361.02
2022-09-12T21:28:54.572Z,100355.92
2022-09-12T21:31:22.441Z,100359.17
2022-09-12T21:33:51.203Z,100358.86
2022-09-12T21:36:19.072Z,100354.45
2022-09-12T21:38:46.935Z,100357.36
2022-09-12T21:41:16.582Z,100356.36
2022-09-12T21:43:45.251Z,100358.95
2022-09-12T21:46:13.571Z,100356.94
2022-09-12T21:48:46.082Z,100355.91
2022-09-12T21:51:13.958Z,100350.64
2022-09-12T21:53:41.958Z,100344.85
2022-09-12T21:56:10.297Z,100347.42
2022-09-12T21:58:38.590Z,100344.02
2022-09-12T22:01:10.744Z,100338.93
2022-09-12T22:03:38.943Z,100337.72
2022-09-12T22:06:07.397Z,100337.37
2022-09-12T22:08:37.553Z,100340.61
2022-09-12T22:11:12.976Z,100346.40
2022-09-12T22:13:43.489Z,100349.30
2022-09-12T22:16:12.119Z,100351.35
2022-09-12T22:18:40.032Z,100351.35
2022-09-12T22:21:12.611Z,100345.89
2022-09-12T22:23:59.262Z,100347.92
2022-09-12T22:26:27.679Z,100350.13
2022-09-12T22:28:55.918Z,100345.02
2022-09-12T22:31:23.807Z,100342.11
2022-09-12T22:33:51.723Z,100344.49
2022-09-12T22:36:19.555Z,100340.41
2022-09-12T22:38:47.568Z,100341.93
2022-09-12T22:41:15.886Z,100341.23
2022-09-12T22:43:43.673Z,100336.44
2022-09-12T22:46:12.804Z,100339.66
2022-09-12T22:48:41.590Z,100330.29
2022-09-12T22:51:11.159Z,100332.33
2022-09-12T22:53:39.225Z,100331.13
2022-09-12T22:56:08.024Z,100335.36
2022-09-12T22:58:42.124Z,100335.34
2022-09-12T23:01:10.782Z,100338.04
2022-09-12T23:03:39.091Z,100338.89
2022-09-12T23:06:07.830Z,100344.84
2022-09-12T23:08:37.178Z,100340.89
2022-09-12T23:11:09.542Z,100342.40
2022-09-12T23:13:38.839Z,100344.92
2022-09-12T23:16:08.239Z,100341.17
2022-09-12T23:18:37.029Z,100336.73
2022-09-12T23:21:10.480Z,100330.42
2022-09-12T23:23:39.312Z,100328.35
2022-09-12T23:26:11.183Z,100329.35
2022-09-12T23:28:40.578Z,100330.54
2022-09-12T23:31:12.097Z,100329.83
2022-09-12T23:33:40.502Z,100327.77
2022-09-12T23:36:14.326Z,100325.02
2022-09-12T23:38:45.232Z,100322.48
2022-09-12T23:41:17.822Z,100318.88
2022-09-12T23:43:46.220Z,100319.35
2022-09-12T23:46:15.604Z,100319.83
2022-09-12T23:48:44.563Z,100321.14
2022-09-12T23:51:13.978Z,100322.64
2022-09-12T23:53:42.068Z,100324.64
2022-09-12T23:56:10.137Z,100326.98
2022-09-12T23:58:38.144Z,100325.29
